BAW466 EGLL-LEBB
Flight info
| Callsign | BAW466 |
|---|---|
| Flight time | 1h 33m |
| Altitude | 37000 |
| Route | GASGU N866 SAM M195 MARUK/N0439F330 N621 LELNA DCT DOMOK/N0437F310 UT260 UPALO UN862 TERPO DCT PEXOD DCT NENEM N867 MAPAX |
| Aircraft | A320/M-SDE3FGHIRWY/LB1 |
Departure
| Time | 2026-05-04 15:39 |
|---|---|
| Airport | London Heathrow Airport (EGLL) |
Arrival
| Time | 2026-05-04 17:13 |
|---|---|
| Airport | Bilbao Airport (LEBB) |
| Time | Latitude | Longitude | Altitude | Speed | Heading |
|---|---|---|---|---|---|
| 2026-05-04 15:20 | 51.47271 | -0.48581 | 92 ft | 0 kts | 269° |
| 2026-05-04 15:28 | 51.47271 | -0.48579 | 92 ft | 1 kts | 269° |
| 2026-05-04 15:28 | 51.47272 | -0.48531 | 92 ft | 2 kts | 269° |
| 2026-05-04 15:29 | 51.47270 | -0.48507 | 92 ft | 2 kts | 295° |
| 2026-05-04 15:30 | 51.47234 | -0.48472 | 92 ft | 0 kts | 360° |
| 2026-05-04 15:32 | 51.47370 | -0.48473 | 92 ft | 11 kts | 360° |
| 2026-05-04 15:32 | 51.47560 | -0.48465 | 92 ft | 13 kts | 34° |
| 2026-05-04 15:33 | 51.47580 | -0.48040 | 92 ft | 21 kts | 88° |
| 2026-05-04 15:34 | 51.47580 | -0.47287 | 92 ft | 22 kts | 91° |
| 2026-05-04 15:34 | 51.47581 | -0.47035 | 92 ft | 22 kts | 90° |
| 2026-05-04 15:34 | 51.47592 | -0.46547 | 92 ft | 22 kts | 89° |
| 2026-05-04 15:35 | 51.47594 | -0.46044 | 92 ft | 22 kts | 91° |
| 2026-05-04 15:35 | 51.47595 | -0.45792 | 92 ft | 22 kts | 90° |
| 2026-05-04 15:35 | 51.47595 | -0.45546 | 92 ft | 24 kts | 90° |
| 2026-05-04 15:36 | 51.47597 | -0.45015 | 92 ft | 23 kts | 89° |
| 2026-05-04 15:36 | 51.47598 | -0.44758 | 92 ft | 22 kts | 90° |
| 2026-05-04 15:36 | 51.47603 | -0.44503 | 92 ft | 22 kts | 89° |
| 2026-05-04 15:37 | 51.47592 | -0.44259 | 92 ft | 21 kts | 100° |
| 2026-05-04 15:37 | 51.47593 | -0.44020 | 92 ft | 21 kts | 91° |
| 2026-05-04 15:37 | 51.47594 | -0.43784 | 92 ft | 20 kts | 90° |
| 2026-05-04 15:37 | 51.47605 | -0.43561 | 92 ft | 19 kts | 62° |
| 2026-05-04 15:38 | 51.47690 | -0.43428 | 92 ft | 13 kts | 9° |
| 2026-05-04 15:38 | 51.47765 | -0.43452 | 92 ft | 10 kts | 293° |
| 2026-05-04 15:38 | 51.47767 | -0.43619 | 92 ft | 34 kts | 270° |
| 2026-05-04 15:38 | 51.47764 | -0.44382 | 92 ft | 101 kts | 270° |
| 2026-05-04 15:39 | 51.47758 | -0.45828 | 93 ft | 156 kts | 270° |
| 2026-05-04 15:39 | 51.47724 | -0.47677 | 418 ft | 171 kts | 270° |
| 2026-05-04 15:39 | 51.47630 | -0.51533 | 1640 ft | 176 kts | 272° |
| 2026-05-04 15:40 | 51.47609 | -0.53586 | 1959 ft | 191 kts | 272° |
| 2026-05-04 15:40 | 51.47419 | -0.55754 | 2263 ft | 209 kts | 260° |
| 2026-05-04 15:40 | 51.47024 | -0.58135 | 2517 ft | 232 kts | 257° |
| 2026-05-04 15:40 | 51.46576 | -0.60691 | 2902 ft | 250 kts | 258° |
| 2026-05-04 15:41 | 51.46101 | -0.63496 | 3375 ft | 265 kts | 258° |
| 2026-05-04 15:41 | 51.45694 | -0.66350 | 4156 ft | 266 kts | 263° |
| 2026-05-04 15:41 | 51.45468 | -0.69294 | 4949 ft | 267 kts | 270° |
| 2026-05-04 15:41 | 51.45405 | -0.72236 | 5727 ft | 267 kts | 272° |
| 2026-05-04 15:42 | 51.45380 | -0.75179 | 6505 ft | 266 kts | 272° |
| 2026-05-04 15:42 | 51.45359 | -0.78126 | 7299 ft | 266 kts | 272° |
| 2026-05-04 15:42 | 51.45335 | -0.81062 | 8184 ft | 265 kts | 271° |
| 2026-05-04 15:42 | 51.44984 | -0.83937 | 8999 ft | 270 kts | 248° |
| 2026-05-04 15:43 | 51.43838 | -0.86316 | 9798 ft | 279 kts | 222° |
| 2026-05-04 15:43 | 51.42097 | -0.87747 | 10554 ft | 287 kts | 204° |
| 2026-05-04 15:43 | 51.40196 | -0.88868 | 10929 ft | 300 kts | 207° |
| 2026-05-04 15:43 | 51.38273 | -0.90361 | 11248 ft | 313 kts | 212° |
| 2026-05-04 15:44 | 51.36404 | -0.92107 | 11824 ft | 316 kts | 215° |
| 2026-05-04 15:44 | 51.34581 | -0.94009 | 12543 ft | 315 kts | 217° |
| 2026-05-04 15:44 | 51.32774 | -0.95967 | 13220 ft | 315 kts | 218° |
| 2026-05-04 15:44 | 51.30955 | -0.97958 | 13870 ft | 316 kts | 218° |
| 2026-05-04 15:45 | 51.29142 | -0.99946 | 14512 ft | 317 kts | 218° |
| 2026-05-04 15:45 | 51.27330 | -1.01860 | 15130 ft | 318 kts | 218° |
| 2026-05-04 15:45 | 51.25461 | -1.03785 | 15790 ft | 318 kts | 218° |
| 2026-05-04 15:45 | 51.23633 | -1.05661 | 16470 ft | 315 kts | 218° |
| 2026-05-04 15:46 | 51.21779 | -1.07568 | 17057 ft | 316 kts | 218° |
| 2026-05-04 15:46 | 51.19946 | -1.09455 | 17604 ft | 317 kts | 218° |
| 2026-05-04 15:46 | 51.18099 | -1.11355 | 18146 ft | 318 kts | 219° |
| 2026-05-04 15:46 | 51.16251 | -1.13257 | 18679 ft | 319 kts | 219° |
| 2026-05-04 15:47 | 51.14377 | -1.15183 | 19206 ft | 320 kts | 219° |
| 2026-05-04 15:47 | 51.12531 | -1.17079 | 19710 ft | 321 kts | 219° |
| 2026-05-04 15:47 | 51.10640 | -1.19021 | 20213 ft | 322 kts | 219° |
| 2026-05-04 15:47 | 51.08769 | -1.20939 | 20695 ft | 323 kts | 219° |
| 2026-05-04 15:48 | 51.06895 | -1.22859 | 21160 ft | 324 kts | 219° |
| 2026-05-04 15:48 | 51.04994 | -1.24805 | 21616 ft | 325 kts | 219° |
| 2026-05-04 15:48 | 51.01211 | -1.28673 | 22470 ft | 328 kts | 220° |
| 2026-05-04 15:49 | 50.99289 | -1.30632 | 22864 ft | 330 kts | 220° |
| 2026-05-04 15:49 | 50.97340 | -1.32618 | 23249 ft | 332 kts | 220° |
| 2026-05-04 15:49 | 50.95401 | -1.34593 | 23622 ft | 334 kts | 220° |
| 2026-05-04 15:49 | 50.93460 | -1.36601 | 23987 ft | 335 kts | 221° |
| 2026-05-04 15:50 | 50.91515 | -1.38631 | 24342 ft | 337 kts | 221° |
| 2026-05-04 15:50 | 50.89558 | -1.40670 | 24690 ft | 339 kts | 221° |
| 2026-05-04 15:50 | 50.87609 | -1.42701 | 25033 ft | 341 kts | 221° |
| 2026-05-04 15:50 | 50.85634 | -1.44757 | 25378 ft | 343 kts | 221° |
| 2026-05-04 15:51 | 50.83641 | -1.46827 | 25734 ft | 344 kts | 221° |
| 2026-05-04 15:51 | 50.81629 | -1.48915 | 26086 ft | 345 kts | 221° |
| 2026-05-04 15:51 | 50.79629 | -1.50989 | 26434 ft | 346 kts | 221° |
| 2026-05-04 15:51 | 50.77634 | -1.53056 | 26768 ft | 347 kts | 221° |
| 2026-05-04 15:52 | 50.75605 | -1.55156 | 27099 ft | 348 kts | 221° |
| 2026-05-04 15:52 | 50.73576 | -1.57253 | 27422 ft | 349 kts | 221° |
| 2026-05-04 15:52 | 50.71565 | -1.59330 | 27734 ft | 350 kts | 222° |
| 2026-05-04 15:52 | 50.69519 | -1.61441 | 28043 ft | 351 kts | 222° |
| 2026-05-04 15:53 | 50.67491 | -1.63531 | 28341 ft | 352 kts | 222° |
| 2026-05-04 15:53 | 50.65458 | -1.65625 | 28634 ft | 353 kts | 221° |
| 2026-05-04 15:53 | 50.63401 | -1.67740 | 28930 ft | 354 kts | 221° |
| 2026-05-04 15:53 | 50.61322 | -1.69877 | 29222 ft | 355 kts | 221° |
| 2026-05-04 15:54 | 50.59255 | -1.72002 | 29512 ft | 356 kts | 221° |
| 2026-05-04 15:54 | 50.57197 | -1.74111 | 29795 ft | 357 kts | 221° |
| 2026-05-04 15:54 | 50.55111 | -1.76246 | 30077 ft | 358 kts | 221° |
| 2026-05-04 15:54 | 50.53032 | -1.78373 | 30344 ft | 359 kts | 221° |
| 2026-05-04 15:55 | 50.50932 | -1.80516 | 30601 ft | 360 kts | 221° |
| 2026-05-04 15:55 | 50.48832 | -1.82657 | 30823 ft | 362 kts | 221° |
| 2026-05-04 15:55 | 50.46727 | -1.84800 | 31052 ft | 363 kts | 221° |
| 2026-05-04 15:55 | 50.44609 | -1.86957 | 31291 ft | 364 kts | 221° |
| 2026-05-04 15:56 | 50.42492 | -1.89109 | 31565 ft | 363 kts | 221° |
| 2026-05-04 15:56 | 50.40391 | -1.91243 | 31890 ft | 362 kts | 221° |
| 2026-05-04 15:56 | 50.38297 | -1.93368 | 32218 ft | 360 kts | 221° |
| 2026-05-04 15:56 | 50.36213 | -1.95480 | 32533 ft | 358 kts | 221° |
| 2026-05-04 15:57 | 50.34146 | -1.97573 | 32836 ft | 356 kts | 222° |
| 2026-05-04 15:57 | 50.32057 | -1.99676 | 33134 ft | 355 kts | 221° |
| 2026-05-04 15:57 | 50.29921 | -2.01594 | 33415 ft | 358 kts | 218° |
| 2026-05-04 15:57 | 50.27689 | -2.03298 | 33694 ft | 361 kts | 215° |
| 2026-05-04 15:58 | 50.25375 | -2.04782 | 33966 ft | 364 kts | 212° |
| 2026-05-04 15:58 | 50.22951 | -2.06049 | 34230 ft | 368 kts | 208° |
| 2026-05-04 15:58 | 50.20472 | -2.07062 | 34466 ft | 372 kts | 205° |
| 2026-05-04 15:58 | 50.17941 | -2.07813 | 34681 ft | 378 kts | 202° |
| 2026-05-04 15:59 | 50.15325 | -2.08301 | 34889 ft | 383 kts | 199° |
| 2026-05-04 15:59 | 50.12656 | -2.08676 | 35109 ft | 382 kts | 199° |
| 2026-05-04 15:59 | 50.10053 | -2.09044 | 35305 ft | 382 kts | 199° |
| 2026-05-04 15:59 | 50.07400 | -2.09411 | 35465 ft | 383 kts | 199° |
| 2026-05-04 16:00 | 50.04767 | -2.09767 | 35607 ft | 384 kts | 198° |
| 2026-05-04 16:00 | 50.02099 | -2.10120 | 35748 ft | 385 kts | 198° |
| 2026-05-04 16:00 | 49.99431 | -2.10446 | 35883 ft | 387 kts | 197° |
| 2026-05-04 16:00 | 49.96722 | -2.10591 | 36013 ft | 393 kts | 194° |
| 2026-05-04 16:01 | 49.94013 | -2.10569 | 36141 ft | 395 kts | 194° |
| 2026-05-04 16:01 | 49.91275 | -2.10555 | 36272 ft | 395 kts | 194° |
| 2026-05-04 16:01 | 49.88513 | -2.10548 | 36392 ft | 395 kts | 194° |
| 2026-05-04 16:01 | 49.85765 | -2.10540 | 36513 ft | 396 kts | 194° |
| 2026-05-04 16:02 | 49.83029 | -2.10532 | 36626 ft | 397 kts | 194° |
| 2026-05-04 16:02 | 49.80275 | -2.10519 | 36735 ft | 398 kts | 194° |
| 2026-05-04 16:02 | 49.74712 | -2.10084 | 36936 ft | 409 kts | 188° |
| 2026-05-04 16:03 | 49.71879 | -2.09526 | 37001 ft | 415 kts | 185° |
| 2026-05-04 16:03 | 49.66149 | -2.07673 | 37007 ft | 427 kts | 179° |
| 2026-05-04 16:04 | 49.60459 | -2.05172 | 37008 ft | 429 kts | 178° |
| 2026-05-04 16:04 | 49.51867 | -2.01411 | 37006 ft | 428 kts | 179° |
| 2026-05-04 16:05 | 49.46175 | -1.98926 | 37000 ft | 428 kts | 179° |
| 2026-05-04 16:06 | 49.37593 | -1.95191 | 36990 ft | 428 kts | 179° |
| 2026-05-04 16:07 | 49.26174 | -1.90242 | 36984 ft | 429 kts | 179° |
| 2026-05-04 16:08 | 49.14749 | -1.85316 | 36984 ft | 429 kts | 179° |
| 2026-05-04 16:09 | 49.00319 | -1.79158 | 36981 ft | 440 kts | 176° |
| 2026-05-04 16:10 | 48.88424 | -1.75415 | 36984 ft | 431 kts | 185° |
| 2026-05-04 16:11 | 48.76628 | -1.74976 | 36984 ft | 425 kts | 190° |
| 2026-05-04 16:12 | 48.58973 | -1.74757 | 36983 ft | 425 kts | 190° |
| 2026-05-04 16:13 | 48.47201 | -1.74614 | 36983 ft | 425 kts | 190° |
| 2026-05-04 16:14 | 48.35398 | -1.74473 | 36983 ft | 425 kts | 190° |
| 2026-05-04 16:16 | 48.20668 | -1.74304 | 36983 ft | 425 kts | 190° |
| 2026-05-04 16:17 | 48.06176 | -1.75516 | 36983 ft | 411 kts | 200° |
| 2026-05-04 16:18 | 47.98059 | -1.78674 | 36983 ft | 399 kts | 208° |
| 2026-05-04 16:18 | 47.95414 | -1.80046 | 36984 ft | 400 kts | 208° |
| 2026-05-04 16:19 | 47.82302 | -1.86754 | 36984 ft | 401 kts | 208° |
| 2026-05-04 16:20 | 47.69086 | -1.93140 | 36983 ft | 407 kts | 203° |
| 2026-05-04 16:21 | 47.60564 | -1.94980 | 36978 ft | 421 kts | 193° |
| 2026-05-04 16:22 | 47.54695 | -1.94922 | 36968 ft | 431 kts | 187° |
| 2026-05-04 16:23 | 47.36972 | -1.94024 | 36955 ft | 416 kts | 197° |
| 2026-05-04 16:24 | 47.26032 | -1.97775 | 36955 ft | 397 kts | 210° |
| 2026-05-04 16:25 | 47.20878 | -2.00635 | 36955 ft | 398 kts | 210° |
| 2026-05-04 16:26 | 47.02785 | -2.10621 | 36948 ft | 398 kts | 210° |
| 2026-05-04 16:28 | 46.89617 | -2.17874 | 36948 ft | 415 kts | 208° |
| 2026-05-04 16:29 | 46.70427 | -2.28321 | 36954 ft | 423 kts | 207° |
| 2026-05-04 16:31 | 46.56664 | -2.35776 | 36953 ft | 423 kts | 207° |
| 2026-05-04 16:32 | 46.40185 | -2.44654 | 36953 ft | 423 kts | 207° |
| 2026-05-04 16:33 | 46.29184 | -2.50549 | 36954 ft | 423 kts | 207° |
| 2026-05-04 16:34 | 46.20952 | -2.54944 | 36953 ft | 423 kts | 208° |
| 2026-05-04 16:35 | 46.04423 | -2.63726 | 36954 ft | 423 kts | 207° |
| 2026-05-04 16:36 | 45.96137 | -2.68107 | 36954 ft | 424 kts | 207° |
| 2026-05-04 16:37 | 45.87880 | -2.72460 | 36953 ft | 424 kts | 207° |
| 2026-05-04 16:38 | 45.76850 | -2.78253 | 36954 ft | 424 kts | 207° |
| 2026-05-04 16:39 | 45.63069 | -2.85459 | 36953 ft | 424 kts | 207° |
| 2026-05-04 16:40 | 45.52028 | -2.91205 | 36954 ft | 423 kts | 207° |
| 2026-05-04 16:41 | 45.38336 | -2.98293 | 36955 ft | 419 kts | 206° |
| 2026-05-04 16:43 | 45.23946 | -3.02497 | 36975 ft | 431 kts | 192° |
| 2026-05-04 16:43 | 45.15046 | -3.03443 | 36990 ft | 429 kts | 192° |
| 2026-05-04 16:45 | 44.97313 | -3.05335 | 37008 ft | 423 kts | 193° |
| 2026-05-04 16:46 | 44.82727 | -3.06885 | 37008 ft | 421 kts | 193° |
| 2026-05-04 16:47 | 44.71083 | -3.08115 | 37008 ft | 421 kts | 192° |
| 2026-05-04 16:48 | 44.59429 | -3.09339 | 37008 ft | 421 kts | 192° |
| 2026-05-04 16:49 | 44.47722 | -3.10569 | 35508 ft | 427 kts | 192° |
| 2026-05-04 16:50 | 44.41859 | -3.11179 | 34161 ft | 426 kts | 192° |
| 2026-05-04 16:50 | 44.35977 | -3.11793 | 32850 ft | 424 kts | 192° |
| 2026-05-04 16:51 | 44.30130 | -3.12403 | 31499 ft | 423 kts | 192° |
| 2026-05-04 16:51 | 44.27241 | -3.12704 | 30826 ft | 422 kts | 192° |
| 2026-05-04 16:51 | 44.21482 | -3.13299 | 29886 ft | 411 kts | 192° |
| 2026-05-04 16:52 | 44.15854 | -3.13883 | 28933 ft | 402 kts | 192° |
| 2026-05-04 16:52 | 44.13086 | -3.14171 | 28465 ft | 398 kts | 192° |
| 2026-05-04 16:53 | 44.07650 | -3.14664 | 27528 ft | 393 kts | 188° |
| 2026-05-04 16:53 | 43.99517 | -3.13375 | 26095 ft | 394 kts | 176° |
| 2026-05-04 16:54 | 43.96862 | -3.12602 | 25628 ft | 391 kts | 176° |
| 2026-05-04 16:55 | 43.86461 | -3.09571 | 23762 ft | 379 kts | 176° |
| 2026-05-04 16:55 | 43.81361 | -3.08102 | 22825 ft | 374 kts | 175° |
| 2026-05-04 16:56 | 43.76309 | -3.06653 | 21887 ft | 370 kts | 175° |
| 2026-05-04 16:56 | 43.68830 | -3.04507 | 20498 ft | 365 kts | 175° |
| 2026-05-04 16:57 | 43.66382 | -3.03544 | 20009 ft | 374 kts | 161° |
| 2026-05-04 16:57 | 43.62593 | -2.98498 | 19060 ft | 396 kts | 119° |
| 2026-05-04 16:58 | 43.62136 | -2.87211 | 17682 ft | 401 kts | 78° |
| 2026-05-04 16:58 | 43.62624 | -2.83444 | 17159 ft | 402 kts | 81° |
| 2026-05-04 16:59 | 43.62482 | -2.75650 | 16139 ft | 399 kts | 103° |
| 2026-05-04 17:00 | 43.57693 | -2.62252 | 14242 ft | 382 kts | 131° |
| 2026-05-04 17:00 | 43.52174 | -2.54656 | 12876 ft | 368 kts | 145° |
| 2026-05-04 17:01 | 43.48021 | -2.50780 | 11990 ft | 360 kts | 154° |
| 2026-05-04 17:01 | 43.43581 | -2.47812 | 11102 ft | 352 kts | 162° |
| 2026-05-04 17:02 | 43.38865 | -2.45731 | 10335 ft | 339 kts | 170° |
| 2026-05-04 17:02 | 43.34145 | -2.44603 | 10020 ft | 312 kts | 178° |
| 2026-05-04 17:03 | 43.31895 | -2.44382 | 9720 ft | 306 kts | 182° |
| 2026-05-04 17:03 | 43.29730 | -2.44362 | 9427 ft | 300 kts | 185° |
| 2026-05-04 17:03 | 43.25571 | -2.44840 | 8552 ft | 292 kts | 192° |
| 2026-05-04 17:04 | 43.21661 | -2.45922 | 7764 ft | 281 kts | 198° |
| 2026-05-04 17:04 | 43.17910 | -2.47404 | 7069 ft | 282 kts | 199° |
| 2026-05-04 17:05 | 43.14633 | -2.50031 | 5998 ft | 285 kts | 239° |
| 2026-05-04 17:05 | 43.14153 | -2.54945 | 5186 ft | 253 kts | 295° |
| 2026-05-04 17:06 | 43.16401 | -2.58605 | 4919 ft | 252 kts | 316° |
| 2026-05-04 17:06 | 43.17640 | -2.60231 | 4593 ft | 243 kts | 316° |
| 2026-05-04 17:07 | 43.19862 | -2.63560 | 4358 ft | 220 kts | 299° |
| 2026-05-04 17:07 | 43.20385 | -2.64723 | 4341 ft | 209 kts | 296° |
| 2026-05-04 17:07 | 43.21313 | -2.67023 | 4235 ft | 197 kts | 296° |
| 2026-05-04 17:07 | 43.21932 | -2.68665 | 3976 ft | 191 kts | 294° |
| 2026-05-04 17:08 | 43.22512 | -2.70241 | 3785 ft | 177 kts | 293° |
| 2026-05-04 17:08 | 43.23526 | -2.73019 | 3214 ft | 150 kts | 291° |
| 2026-05-04 17:08 | 43.23968 | -2.74241 | 2983 ft | 138 kts | 295° |
| 2026-05-04 17:09 | 43.24390 | -2.75403 | 2782 ft | 134 kts | 295° |
| 2026-05-04 17:09 | 43.24807 | -2.76550 | 2568 ft | 132 kts | 292° |
| 2026-05-04 17:09 | 43.25212 | -2.77663 | 2377 ft | 132 kts | 292° |
| 2026-05-04 17:10 | 43.26036 | -2.79915 | 1999 ft | 131 kts | 293° |
| 2026-05-04 17:10 | 43.27252 | -2.83248 | 1413 ft | 129 kts | 293° |
| 2026-05-04 17:11 | 43.27658 | -2.84351 | 1206 ft | 129 kts | 290° |
| 2026-05-04 17:11 | 43.28057 | -2.85446 | 1024 ft | 129 kts | 292° |
| 2026-05-04 17:11 | 43.28861 | -2.87646 | 640 ft | 128 kts | 295° |
| 2026-05-04 17:12 | 43.29258 | -2.88728 | 405 ft | 127 kts | 291° |
| 2026-05-04 17:12 | 43.30018 | -2.90810 | 145 ft | 111 kts | 295° |
| 2026-05-04 17:13 | 43.30503 | -2.91957 | 145 ft | 21 kts | 315° |
| 2026-05-04 17:14 | 43.30590 | -2.91865 | 145 ft | 17 kts | 116° |
| 2026-05-04 17:14 | 43.30526 | -2.91690 | 145 ft | 21 kts | 115° |
| 2026-05-04 17:14 | 43.30394 | -2.91324 | 145 ft | 21 kts | 115° |
| 2026-05-04 17:15 | 43.30333 | -2.91162 | 145 ft | 14 kts | 119° |
| 2026-05-04 17:15 | 43.30381 | -2.90981 | 145 ft | 11 kts | 33° |
| 2026-05-04 17:16 | 43.30410 | -2.90779 | 145 ft | 7 kts | 41° |
| 2026-05-04 17:16 | 43.30462 | -2.90740 | 145 ft | 1 kts | 26° |
| 2026-05-04 17:17 | 43.30463 | -2.90740 | 145 ft | 0 kts | 26° |